CheckWX is a tool to help pilots better visualize weather data.  It is not intended as a substitute for an official pre-flight weather briefing.

18:02:51 UTC

KCGS METAR
College Park Airport
College Park, Maryland, USA
Current

20 mins ago

KCGS 171743Z AUTO 00000KT 10SM BKN050 BKN075 BKN120 02/M08 A3011 RMK AO1 T00221076
Observed
Feb-17 @ 17:43 UTC
Visibility
10 SM
Flight Rules
VFR
Cloud Levels
  • Broken at 5,000' AGL
  • Broken at 7,500' AGL
  • Broken at 12,000' AGL
Temperature
C / 36°F
Dewpoint
-8°C / 18°F
Humidity
48%
Altimeter
30.11" Hg
Pressure
1019.62 hPa
Previous

40 mins ago

KCGS 171723Z AUTO 00000KT 10SM OVC050 02/M08 A3013 RMK AO1 T00221076
Observed
Feb-17 @ 17:23 UTC
Visibility
10 SM
Flight Rules
VFR
Cloud Levels
  • Overcast at 5,000' AGL
Temperature
C / 36°F
Dewpoint
-8°C / 18°F
Humidity
48%
Altimeter
30.13" Hg
Pressure
1020.32 hPa
Previous

60 mins ago

KCGS 171703Z AUTO 00000KT 10SM OVC050 02/M07 A3011 RMK AO1 T00211073
Observed
Feb-17 @ 17:03 UTC
Visibility
10 SM
Flight Rules
VFR
Cloud Levels
  • Overcast at 5,000' AGL
Temperature
C / 36°F
Dewpoint
-7°C / 19°F
Humidity
52%
Altimeter
30.11" Hg
Pressure
1019.62 hPa